Time;durP1;ratioP1;P1;durP2;ratioP2;P2;SDS_P1;SDS_P2;PMS_P1;PMS_P2;Temp;Humidity;BMP_temperature;BMP_pressure;BME280_temperature;BME280_humidity;BME280_pressure;Samples;Min_cycle;Max_cycle;Signal;HPM_P1;HPM_P2
2022/02/27 00:00:27;;;;;;;;;;;;;;;;;;2097409;28;19974;-47
2022/02/27 00:01:27;;;;;;;;;;;;;;;;;;2097568;28;20412;-45
2022/02/27 00:02:29;;;;;;;;;;;;;;;;;;2095893;28;20012;-47
2022/02/27 00:03:30;;;;;;;;;;;;;;;;;;2097607;28;20002;-47
2022/02/27 00:04:30;;;;;;;;;;;;;;;;;;2097849;28;19925;-49
2022/02/27 00:05:31;;;;;;;;;;;;;;;;;;2094574;28;19925;-45
2022/02/27 00:06:32;;;;;;;;;;;;;;;;;;2097676;28;19928;-48
2022/02/27 00:07:33;;;;;;;;;;;;;;;;;;2097900;28;19931;-48
2022/02/27 00:08:34;;;;;;;;;;;;;;;;;;2096186;28;20015;-46
2022/02/27 00:09:35;;;;;;;;;;;;;;;;;;2097833;28;19925;-46
2022/02/27 00:10:35;;;;;;;;;;;;;;;;;;2097078;28;20003;-46
2022/02/27 00:11:36;;;;;;;;;;;;;;;;;;2095085;28;19947;-45
2022/02/27 00:12:37;;;;;;;;;;;;;;;;;;2097938;28;19924;-44
2022/02/27 00:13:38;;;;;;;;;;;;;;;;;;2096947;28;19924;-48
2022/02/27 00:14:39;;;;;;;;;;;;;;;;;;2096743;28;19970;-47
2022/02/27 00:15:40;;;;;;;;;;;;;;;;;;2094342;28;20289;-49
2022/02/27 00:16:41;;;;;;;;;;;;;;;;;;2092914;28;19928;-52
2022/02/27 00:17:42;;;;;;;;;;;;;;;;;;2093430;28;19932;-48
2022/02/27 00:18:43;;;;;;;;;;;;;;;;;;2089423;28;20012;-51
2022/02/27 00:19:44;;;;;;;;;;;;;;;;;;2094797;28;19933;-51
2022/02/27 00:20:47;;;;;;;;;;;;;;;;;;2097800;28;19924;-45
2022/02/27 00:21:48;;;;;;;;;;;;;;;;;;2097490;28;19924;-49
2022/02/27 00:22:50;;;;;;;;;;;;;;;;;;2092915;28;19925;-48
2022/02/27 00:23:50;;;;;;;;;;;;;;;;;;2091430;28;21895;-45
2022/02/27 00:24:51;;;;;;;;;;;;;;;;;;2093133;28;19928;-44
2022/02/27 00:25:52;;;;;;;;;;;;;;;;;;2096237;28;19982;-44
2022/02/27 00:26:53;;;;;;;;;;;;;;;;;;2097862;28;19924;-44
2022/02/27 00:27:55;;;;;;;;;;;;;;;;;;2096851;28;19928;-45
2022/02/27 00:28:58;;;;;;;;;;;;;;;;;;2097803;28;19925;-45
2022/02/27 00:29:59;;;;;;;;;;;;;;;;;;2097112;28;19928;-44
2022/02/27 00:31:01;;;;;;;;;;;;;;;;;;2094822;28;19925;-46
2022/02/27 00:32:01;;;;;;;;;;;;;;;;;;2098102;28;19978;-46
2022/02/27 00:33:03;;;;;;;;;;;;;;;;;;2096986;28;19929;-46
2022/02/27 00:34:03;;;;;;;;;;;;;;;;;;2096230;28;19924;-45
2022/02/27 00:35:04;;;;;;;;;;;;;;;;;;2097709;28;19974;-44
2022/02/27 00:36:06;;;;;;;;;;;;;;;;;;2094880;28;19925;-52
2022/02/27 00:37:07;;;;;;;;;;;;;;;;;;2096376;28;19929;-49
2022/02/27 00:38:08;;;;;;;;;;;;;;;;;;2097550;28;19979;-53
2022/02/27 00:39:10;;;;;;;;;;;;;;;;;;2095500;28;19952;-50
2022/02/27 00:40:11;;;;;;;;;;;;;;;;;;2097797;28;19963;-49
2022/02/27 00:41:12;;;;;;;;;;;;;;;;;;2097542;28;20409;-49
2022/02/27 00:42:13;;;;;;;;;;;;;;;;;;2093914;28;19929;-50
2022/02/27 00:43:14;;;;;;;;;;;;;;;;;;2097926;28;19925;-50
2022/02/27 00:44:14;;;;;;;;;;;;;;;;;;2096791;28;20321;-49
2022/02/27 00:45:15;;;;;;;;;;;;;;;;;;2096267;28;20080;-49
2022/02/27 00:46:16;;;;;;;;;;;;;;;;;;2097543;28;19982;-50
2022/02/27 00:47:17;;;;;;;;;;;;;;;;;;2095943;28;20363;-50
2022/02/27 00:48:18;;;;;;;;;;;;;;;;;;2092736;28;20027;-49
2022/02/27 00:49:19;;;;;;;;;;;;;;;;;;2089357;28;19928;-50
2022/02/27 00:50:20;;;;;;;;;;;;;;;;;;2092430;28;20400;-52
2022/02/27 00:51:21;;;;;;;;;;;;;;;;;;2097621;28;20023;-50
2022/02/27 00:52:22;;;;;;;;;;;;;;;;;;2097627;28;20297;-49
2022/02/27 00:53:23;;;;;;;;;;;;;;;;;;2095406;28;20428;-49
2022/02/27 00:54:24;;;;;;;;;;;;;;;;;;2097518;28;20578;-50
2022/02/27 00:55:25;;;;;;;;;;;;;;;;;;2097034;28;19925;-49
2022/02/27 00:56:26;;;;;;;;;;;;;;;;;;2097019;28;19936;-51
2022/02/27 00:57:28;;;;;;;;;;;;;;;;;;2099010;28;19952;-50
2022/02/27 00:58:28;;;;;;;;;;;;;;;;;;2098167;28;19964;-49
2022/02/27 00:59:29;;;;;;;;;;;;;;;;;;2096317;28;20393;-51
2022/02/27 01:00:30;;;;;;;;;;;;;;;;;;2099174;28;19967;-49
2022/02/27 01:01:31;;;;;;;;;;;;;;;;;;2096605;28;19924;-48
2022/02/27 01:02:32;;;;;;;;;;;;;;;;;;2098112;28;19928;-50
2022/02/27 01:03:33;;;;;;;;;;;;;;;;;;2099003;28;20456;-50
2022/02/27 01:04:34;;;;;;;;;;;;;;;;;;2095666;28;19924;-50
2022/02/27 01:05:35;;;;;;;;;;;;;;;;;;2098951;28;19986;-49
2022/02/27 01:06:36;;;;;;;;;;;;;;;;;;2098816;28;20456;-50
2022/02/27 01:07:37;;;;;;;;;;;;;;;;;;2097497;28;20773;-52
2022/02/27 01:08:38;;;;;;;;;;;;;;;;;;2098815;28;19924;-49
2022/02/27 01:09:38;;;;;;;;;;;;;;;;;;2098667;28;19931;-51
2022/02/27 01:10:39;;;;;;;;;;;;;;;;;;2097084;28;19947;-49
2022/02/27 01:11:40;;;;;;;;;;;;;;;;;;2098736;28;19956;-51
2022/02/27 01:12:41;;;;;;;;;;;;;;;;;;2096836;28;20014;-50
2022/02/27 01:13:42;;;;;;;;;;;;;;;;;;2097671;28;19936;-50
2022/02/27 01:14:43;;;;;;;;;;;;;;;;;;2098776;28;20382;-51
2022/02/27 01:15:44;;;;;;;;;;;;;;;;;;2096260;28;19933;-50
2022/02/27 01:16:44;;;;;;;;;;;;;;;;;;2098479;28;19925;-50
2022/02/27 01:17:46;;;;;;;;;;;;;;;;;;2098826;28;19977;-51
2022/02/27 01:18:46;;;;;;;;;;;;;;;;;;2096793;28;19972;-52
2022/02/27 01:19:47;;;;;;;;;;;;;;;;;;2099089;28;19924;-49
2022/02/27 01:20:48;;;;;;;;;;;;;;;;;;2098831;28;20015;-48
2022/02/27 01:21:49;;;;;;;;;;;;;;;;;;2096602;28;19932;-49
2022/02/27 01:22:51;;;;;;;;;;;;;;;;;;2098926;28;19924;-51
2022/02/27 01:23:52;;;;;;;;;;;;;;;;;;2098452;28;20119;-49
2022/02/27 01:24:53;;;;;;;;;;;;;;;;;;2097429;28;19924;-49
2022/02/27 01:25:54;;;;;;;;;;;;;;;;;;2098985;28;19931;-45
2022/02/27 01:26:55;;;;;;;;;;;;;;;;;;2096166;28;20370;-45
2022/02/27 01:27:56;;;;;;;;;;;;;;;;;;2097061;28;19971;-44
2022/02/27 01:28:56;;;;;;;;;;;;;;;;;;2098802;28;19925;-45
2022/02/27 01:29:57;;;;;;;;;;;;;;;;;;2095358;28;19924;-45
2022/02/27 01:30:58;;;;;;;;;;;;;;;;;;2098657;28;19930;-44
2022/02/27 01:31:59;;;;;;;;;;;;;;;;;;2098938;28;20392;-44
2022/02/27 01:33:00;;;;;;;;;;;;;;;;;;2096368;28;19986;-45
2022/02/27 01:34:01;;;;;;;;;;;;;;;;;;2098946;28;19932;-46
2022/02/27 01:35:03;;;;;;;;;;;;;;;;;;2098439;28;19971;-45
2022/02/27 01:36:04;;;;;;;;;;;;;;;;;;2095539;28;20293;-45
2022/02/27 01:37:05;;;;;;;;;;;;;;;;;;2098888;28;19924;-45
2022/02/27 01:38:06;;;;;;;;;;;;;;;;;;2096787;28;19935;-46
2022/02/27 01:39:06;;;;;;;;;;;;;;;;;;2096094;28;20396;-45
2022/02/27 01:40:10;;;;;;;;;;;;;;;;;;2098755;28;19929;-45
2022/02/27 01:41:11;;;;;;;;;;;;;;;;;;2096713;28;19931;-45
2022/02/27 01:42:12;;;;;;;;;;;;;;;;;;2098502;28;19931;-46
2022/02/27 01:43:13;;;;;;;;;;;;;;;;;;2098555;28;19935;-45
2022/02/27 01:44:14;;;;;;;;;;;;;;;;;;2096725;28;20012;-45
2022/02/27 01:45:15;;;;;;;;;;;;;;;;;;2090437;28;20014;-45
2022/02/27 01:46:16;;;;;;;;;;;;;;;;;;2090434;28;20015;-45
2022/02/27 01:47:17;;;;;;;;;;;;;;;;;;2095600;28;19931;-46
2022/02/27 01:48:18;;;;;;;;;;;;;;;;;;2098618;28;19924;-46
2022/02/27 01:49:18;;;;;;;;;;;;;;;;;;2097568;28;19928;-45
2022/02/27 01:50:19;;;;;;;;;;;;;;;;;;2096394;28;20400;-44
2022/02/27 01:51:20;;;;;;;;;;;;;;;;;;2098658;28;20381;-45
2022/02/27 01:52:21;;;;;;;;;;;;;;;;;;2097942;28;20377;-45
2022/02/27 01:53:22;;;;;;;;;;;;;;;;;;2096263;28;19925;-45
2022/02/27 01:54:23;;;;;;;;;;;;;;;;;;2098834;28;20286;-45
2022/02/27 01:55:23;;;;;;;;;;;;;;;;;;2094798;28;20440;-45
2022/02/27 01:56:24;;;;;;;;;;;;;;;;;;2097977;28;20507;-45
2022/02/27 01:57:25;;;;;;;;;;;;;;;;;;2098675;28;19924;-46
2022/02/27 01:58:26;;;;;;;;;;;;;;;;;;2096403;28;20003;-45
2022/02/27 01:59:27;;;;;;;;;;;;;;;;;;2098643;28;19974;-44
2022/02/27 02:00:28;;;;;;;;;;;;;;;;;;2098645;28;19925;-45
2022/02/27 02:01:28;;;;;;;;;;;;;;;;;;2096461;28;19931;-45
2022/02/27 02:02:29;;;;;;;;;;;;;;;;;;2098669;28;20392;-45
2022/02/27 02:03:30;;;;;;;;;;;;;;;;;;2097995;28;20349;-44
2022/02/27 02:04:31;;;;;;;;;;;;;;;;;;2093215;28;19925;-45
2022/02/27 02:05:32;;;;;;;;;;;;;;;;;;2090493;28;19932;-45
2022/02/27 02:06:33;;;;;;;;;;;;;;;;;;2091784;28;20354;-46
2022/02/27 02:07:34;;;;;;;;;;;;;;;;;;2097566;28;19924;-45
2022/02/27 02:08:35;;;;;;;;;;;;;;;;;;2098440;28;19931;-45
2022/02/27 02:09:36;;;;;;;;;;;;;;;;;;2096080;28;19924;-45
2022/02/27 02:10:37;;;;;;;;;;;;;;;;;;2098335;28;19925;-45
2022/02/27 02:11:37;;;;;;;;;;;;;;;;;;2093876;28;19978;-45
2022/02/27 02:12:38;;;;;;;;;;;;;;;;;;2095346;28;19931;-45
2022/02/27 02:13:39;;;;;;;;;;;;;;;;;;2092461;28;19925;-46
2022/02/27 02:14:40;;;;;;;;;;;;;;;;;;2092788;28;19925;-45
2022/02/27 02:15:41;;;;;;;;;;;;;;;;;;2095307;28;20160;-48
2022/02/27 02:16:42;;;;;;;;;;;;;;;;;;2098052;28;20042;-51
2022/02/27 02:17:43;;;;;;;;;;;;;;;;;;2097291;28;20421;-48
2022/02/27 02:18:44;;;;;;;;;;;;;;;;;;2095107;28;19942;-49
2022/02/27 02:19:44;;;;;;;;;;;;;;;;;;2097799;28;19935;-48
2022/02/27 02:20:46;;;;;;;;;;;;;;;;;;2096773;28;19971;-49
2022/02/27 02:21:46;;;;;;;;;;;;;;;;;;2090833;28;19925;-51
2022/02/27 02:22:47;;;;;;;;;;;;;;;;;;2089463;28;19925;-49
2022/02/27 02:23:48;;;;;;;;;;;;;;;;;;2089869;28;19929;-49
2022/02/27 02:24:49;;;;;;;;;;;;;;;;;;2097653;28;19940;-49
2022/02/27 02:25:51;;;;;;;;;;;;;;;;;;2097359;28;19924;-45
2022/02/27 02:26:53;;;;;;;;;;;;;;;;;;2095351;28;19929;-45
2022/02/27 02:27:54;;;;;;;;;;;;;;;;;;2091310;28;20408;-44
2022/02/27 02:28:55;;;;;;;;;;;;;;;;;;2095990;28;20404;-45
2022/02/27 02:29:56;;;;;;;;;;;;;;;;;;2095674;28;20285;-45
2022/02/27 02:30:56;;;;;;;;;;;;;;;;;;2093324;28;19924;-45
2022/02/27 02:31:57;;;;;;;;;;;;;;;;;;2091237;28;19928;-45
2022/02/27 02:32:58;;;;;;;;;;;;;;;;;;2095927;28;19924;-44
2022/02/27 02:33:59;;;;;;;;;;;;;;;;;;2098556;28;19924;-46
2022/02/27 02:35:00;;;;;;;;;;;;;;;;;;2097280;28;20366;-45
2022/02/27 02:36:01;;;;;;;;;;;;;;;;;;2091768;28;19959;-45
2022/02/27 02:37:02;;;;;;;;;;;;;;;;;;2090050;28;20382;-44
2022/02/27 02:38:03;;;;;;;;;;;;;;;;;;2093385;28;19925;-44
2022/02/27 02:39:03;;;;;;;;;;;;;;;;;;2098376;28;19929;-44
2022/02/27 02:40:04;;;;;;;;;;;;;;;;;;2098310;28;19976;-44
2022/02/27 02:41:06;;;;;;;;;;;;;;;;;;2096035;28;19928;-44
2022/02/27 02:42:07;;;;;;;;;;;;;;;;;;2098460;28;20053;-46
2022/02/27 02:43:12;;;;;;;;;;;;;;;;;;2097320;28;20328;-44
2022/02/27 02:44:13;;;;;;;;;;;;;;;;;;2096707;28;20015;-44
2022/02/27 02:45:14;;;;;;;;;;;;;;;;;;2098620;28;19959;-44
2022/02/27 02:46:15;;;;;;;;;;;;;;;;;;2097621;28;20246;-45
2022/02/27 02:47:17;;;;;;;;;;;;;;;;;;2097015;28;19932;-45
2022/02/27 02:48:17;;;;;;;;;;;;;;;;;;2098405;28;20019;-45
2022/02/27 02:49:18;;;;;;;;;;;;;;;;;;2093632;28;19925;-44
2022/02/27 02:50:19;;;;;;;;;;;;;;;;;;2098326;28;19924;-44
2022/02/27 02:51:20;;;;;;;;;;;;;;;;;;2098335;28;20304;-45
2022/02/27 02:52:21;;;;;;;;;;;;;;;;;;2096006;28;19985;-45
2022/02/27 02:53:22;;;;;;;;;;;;;;;;;;2098499;28;19930;-44
2022/02/27 02:54:23;;;;;;;;;;;;;;;;;;2098591;28;19929;-52
2022/02/27 02:55:23;;;;;;;;;;;;;;;;;;2095120;28;20373;-48
2022/02/27 02:56:24;;;;;;;;;;;;;;;;;;2098220;28;20373;-49
2022/02/27 02:57:25;;;;;;;;;;;;;;;;;;2097501;28;19924;-48
2022/02/27 02:58:26;;;;;;;;;;;;;;;;;;2096780;28;20356;-49
2022/02/27 02:59:27;;;;;;;;;;;;;;;;;;2098384;28;19924;-50
2022/02/27 03:00:28;;;;;;;;;;;;;;;;;;2095159;28;19925;-50
2022/02/27 03:01:29;;;;;;;;;;;;;;;;;;2096716;28;19974;-50
2022/02/27 03:02:30;;;;;;;;;;;;;;;;;;2098576;28;19925;-44
2022/02/27 03:03:31;;;;;;;;;;;;;;;;;;2096128;28;19932;-45
2022/02/27 03:04:31;;;;;;;;;;;;;;;;;;2097908;28;19925;-44
2022/02/27 03:05:33;;;;;;;;;;;;;;;;;;2098407;28;20066;-44
2022/02/27 03:06:35;;;;;;;;;;;;;;;;;;2096110;28;19978;-45
2022/02/27 03:07:36;;;;;;;;;;;;;;;;;;2098609;28;19937;-44
2022/02/27 03:08:37;;;;;;;;;;;;;;;;;;2097874;28;19974;-44
2022/02/27 03:09:38;;;;;;;;;;;;;;;;;;2096611;28;19975;-44
2022/02/27 03:10:39;;;;;;;;;;;;;;;;;;2098146;28;19947;-44
2022/02/27 03:11:40;;;;;;;;;;;;;;;;;;2096330;28;19924;-45
2022/02/27 03:12:41;;;;;;;;;;;;;;;;;;2095600;28;19924;-45
2022/02/27 03:13:42;;;;;;;;;;;;;;;;;;2098242;28;19931;-45
2022/02/27 03:14:42;;;;;;;;;;;;;;;;;;2095699;28;20388;-45
2022/02/27 03:15:43;;;;;;;;;;;;;;;;;;2097421;28;19993;-44
2022/02/27 03:16:44;;;;;;;;;;;;;;;;;;2098112;28;20321;-45
2022/02/27 03:17:46;;;;;;;;;;;;;;;;;;2096047;28;19932;-45
2022/02/27 03:18:46;;;;;;;;;;;;;;;;;;2089128;28;19975;-45
2022/02/27 03:19:47;;;;;;;;;;;;;;;;;;2090160;28;20405;-48
2022/02/27 03:20:49;;;;;;;;;;;;;;;;;;2095106;28;19925;-50
2022/02/27 03:21:50;;;;;;;;;;;;;;;;;;2098217;28;19924;-48
2022/02/27 03:22:51;;;;;;;;;;;;;;;;;;2097614;28;19963;-51
2022/02/27 03:23:52;;;;;;;;;;;;;;;;;;2096294;28;20019;-48
2022/02/27 03:24:53;;;;;;;;;;;;;;;;;;2098194;28;19978;-49
2022/02/27 03:25:54;;;;;;;;;;;;;;;;;;2096833;28;19932;-51
2022/02/27 03:26:55;;;;;;;;;;;;;;;;;;2097257;28;20066;-49
2022/02/27 03:27:56;;;;;;;;;;;;;;;;;;2098076;28;19928;-52
2022/02/27 03:28:57;;;;;;;;;;;;;;;;;;2094815;28;19967;-49
2022/02/27 03:29:57;;;;;;;;;;;;;;;;;;2097923;28;19928;-48
2022/02/27 03:30:58;;;;;;;;;;;;;;;;;;2098022;28;20073;-52
2022/02/27 03:31:59;;;;;;;;;;;;;;;;;;2095825;28;20376;-48
2022/02/27 03:33:00;;;;;;;;;;;;;;;;;;2098224;28;19935;-51
2022/02/27 03:34:01;;;;;;;;;;;;;;;;;;2098036;28;19924;-49
2022/02/27 03:35:02;;;;;;;;;;;;;;;;;;2094514;28;19932;-51
2022/02/27 03:36:03;;;;;;;;;;;;;;;;;;2098068;28;19968;-50
2022/02/27 03:37:05;;;;;;;;;;;;;;;;;;2097161;28;20320;-48
2022/02/27 03:38:05;;;;;;;;;;;;;;;;;;2096440;28;20011;-49
2022/02/27 03:39:06;;;;;;;;;;;;;;;;;;2098368;28;19930;-45
2022/02/27 03:40:07;;;;;;;;;;;;;;;;;;2096520;28;19939;-45
2022/02/27 03:41:08;;;;;;;;;;;;;;;;;;2096298;28;19970;-44
2022/02/27 03:42:10;;;;;;;;;;;;;;;;;;2098141;28;20011;-44
2022/02/27 03:43:10;;;;;;;;;;;;;;;;;;2094619;28;20019;-44
2022/02/27 03:44:11;;;;;;;;;;;;;;;;;;2097784;28;20062;-45
2022/02/27 03:45:12;;;;;;;;;;;;;;;;;;2097962;28;20266;-45
2022/02/27 03:46:13;;;;;;;;;;;;;;;;;;2093466;28;19939;-45
2022/02/27 03:47:14;;;;;;;;;;;;;;;;;;2089745;28;19929;-44
2022/02/27 03:48:15;;;;;;;;;;;;;;;;;;2089332;28;19924;-45
2022/02/27 03:49:16;;;;;;;;;;;;;;;;;;2096179;28;19977;-44
2022/02/27 03:50:16;;;;;;;;;;;;;;;;;;2097829;28;20452;-45
2022/02/27 03:51:17;;;;;;;;;;;;;;;;;;2097248;28;19925;-45
2022/02/27 03:52:18;;;;;;;;;;;;;;;;;;2095387;28;20303;-44
2022/02/27 03:53:19;;;;;;;;;;;;;;;;;;2096558;28;19924;-44
2022/02/27 03:54:21;;;;;;;;;;;;;;;;;;2096232;28;19925;-50
2022/02/27 03:55:22;;;;;;;;;;;;;;;;;;2097777;28;19924;-49
2022/02/27 03:56:23;;;;;;;;;;;;;;;;;;2091343;28;19933;-50
2022/02/27 03:57:24;;;;;;;;;;;;;;;;;;2092669;28;19928;-48
2022/02/27 03:58:25;;;;;;;;;;;;;;;;;;2097868;28;19925;-51
2022/02/27 03:59:26;;;;;;;;;;;;;;;;;;2097734;28;19981;-51
2022/02/27 04:00:26;;;;;;;;;;;;;;;;;;2094281;28;19936;-52
2022/02/27 04:01:27;;;;;;;;;;;;;;;;;;2097888;28;20369;-52
2022/02/27 04:02:28;;;;;;;;;;;;;;;;;;2096047;28;20213;-52
2022/02/27 04:03:29;;;;;;;;;;;;;;;;;;2096233;28;20007;-51
2022/02/27 04:04:30;;;;;;;;;;;;;;;;;;2097961;28;19931;-49
2022/02/27 04:05:31;;;;;;;;;;;;;;;;;;2097140;28;19970;-51
2022/02/27 04:06:32;;;;;;;;;;;;;;;;;;2093219;28;19967;-49
2022/02/27 04:07:33;;;;;;;;;;;;;;;;;;2097332;28;19928;-50
2022/02/27 04:08:34;;;;;;;;;;;;;;;;;;2094718;28;20039;-44
2022/02/27 04:09:35;;;;;;;;;;;;;;;;;;2097161;28;20393;-45
2022/02/27 04:10:35;;;;;;;;;;;;;;;;;;2097776;28;19925;-45
2022/02/27 04:11:36;;;;;;;;;;;;;;;;;;2095526;28;19925;-44
2022/02/27 04:12:37;;;;;;;;;;;;;;;;;;2097762;28;20293;-45
2022/02/27 04:13:39;;;;;;;;;;;;;;;;;;2097769;28;19924;-45
2022/02/27 04:14:39;;;;;;;;;;;;;;;;;;2094144;28;19924;-45
2022/02/27 04:15:40;;;;;;;;;;;;;;;;;;2097820;28;20007;-45
2022/02/27 04:16:41;;;;;;;;;;;;;;;;;;2097424;28;20003;-45
2022/02/27 04:17:43;;;;;;;;;;;;;;;;;;2095838;28;19928;-45
2022/02/27 04:18:44;;;;;;;;;;;;;;;;;;2096555;28;19959;-45
2022/02/27 04:19:45;;;;;;;;;;;;;;;;;;2093592;28;20010;-52
2022/02/27 04:20:46;;;;;;;;;;;;;;;;;;2096551;28;19953;-49
2022/02/27 04:21:47;;;;;;;;;;;;;;;;;;2097886;28;19924;-51
2022/02/27 04:22:48;;;;;;;;;;;;;;;;;;2089662;28;19956;-49
2022/02/27 04:23:50;;;;;;;;;;;;;;;;;;2097600;28;19931;-52
2022/02/27 04:24:51;;;;;;;;;;;;;;;;;;2097703;28;19970;-52
2022/02/27 04:25:52;;;;;;;;;;;;;;;;;;2095551;28;19959;-50
2022/02/27 04:26:52;;;;;;;;;;;;;;;;;;2097835;28;19996;-52
2022/02/27 04:27:53;;;;;;;;;;;;;;;;;;2097682;28;20293;-48
2022/02/27 04:28:55;;;;;;;;;;;;;;;;;;2094296;28;19931;-50
2022/02/27 04:29:55;;;;;;;;;;;;;;;;;;2098632;28;19964;-51
2022/02/27 04:30:57;;;;;;;;;;;;;;;;;;2096968;28;19924;-51
2022/02/27 04:31:58;;;;;;;;;;;;;;;;;;2097330;28;20318;-44
2022/02/27 04:33:02;;;;;;;;;;;;;;;;;;2090837;28;20348;-44
2022/02/27 04:34:03;;;;;;;;;;;;;;;;;;2092813;28;19963;-45
2022/02/27 04:35:04;;;;;;;;;;;;;;;;;;2098454;28;20289;-44
2022/02/27 04:36:05;;;;;;;;;;;;;;;;;;2099206;28;19924;-45
2022/02/27 04:37:06;;;;;;;;;;;;;;;;;;2096296;28;19925;-44
2022/02/27 04:38:10;;;;;;;;;;;;;;;;;;2090956;28;19924;-45
2022/02/27 04:39:11;;;;;;;;;;;;;;;;;;2093683;28;19925;-45
2022/02/27 04:40:11;;;;;;;;;;;;;;;;;;2096420;28;19932;-44
2022/02/27 04:41:18;;;;;;;;;;;;;;;;;;2099034;28;19928;-44
2022/02/27 04:42:18;;;;;;;;;;;;;;;;;;2096718;28;19971;-45
2022/02/27 04:43:19;;;;;;;;;;;;;;;;;;2096726;28;19956;-51
2022/02/27 04:44:20;;;;;;;;;;;;;;;;;;2099086;28;19925;-53
2022/02/27 04:45:21;;;;;;;;;;;;;;;;;;2098313;28;20025;-49
2022/02/27 04:46:22;;;;;;;;;;;;;;;;;;2093523;28;19925;-51
2022/02/27 04:47:23;;;;;;;;;;;;;;;;;;2094546;28;19929;-49
2022/02/27 04:48:24;;;;;;;;;;;;;;;;;;2090870;28;20309;-48
2022/02/27 04:49:25;;;;;;;;;;;;;;;;;;2092571;28;19925;-49
2022/02/27 04:50:26;;;;;;;;;;;;;;;;;;2096875;28;19928;-48
2022/02/27 04:51:27;;;;;;;;;;;;;;;;;;2095269;28;20342;-49
2022/02/27 04:52:28;;;;;;;;;;;;;;;;;;2099238;28;20016;-49
2022/02/27 04:53:29;;;;;;;;;;;;;;;;;;2098727;28;20385;-51
2022/02/27 04:54:30;;;;;;;;;;;;;;;;;;2097118;28;19982;-45
2022/02/27 04:55:31;;;;;;;;;;;;;;;;;;2091770;28;19974;-44
2022/02/27 04:56:32;;;;;;;;;;;;;;;;;;2093390;28;20003;-46
2022/02/27 04:57:32;;;;;;;;;;;;;;;;;;2096514;28;19928;-44
2022/02/27 04:58:33;;;;;;;;;;;;;;;;;;2099395;28;19962;-45
2022/02/27 04:59:35;;;;;;;;;;;;;;;;;;2095610;28;19982;-44
2022/02/27 05:00:36;;;;;;;;;;;;;;;;;;2098981;28;20393;-52
2022/02/27 05:01:37;;;;;;;;;;;;;;;;;;2098964;28;20373;-50
2022/02/27 05:02:38;;;;;;;;;;;;;;;;;;2095817;28;19953;-45
2022/02/27 05:03:39;;;;;;;;;;;;;;;;;;2099349;28;19924;-44
2022/02/27 05:04:40;;;;;;;;;;;;;;;;;;2098955;28;19925;-44
2022/02/27 05:05:41;;;;;;;;;;;;;;;;;;2096864;28;19976;-44
2022/02/27 05:06:42;;;;;;;;;;;;;;;;;;2098930;28;19925;-44
2022/02/27 05:07:42;;;;;;;;;;;;;;;;;;2097980;28;19932;-44
2022/02/27 05:08:43;;;;;;;;;;;;;;;;;;2096008;28;20584;-44
2022/02/27 05:09:44;;;;;;;;;;;;;;;;;;2098945;28;19932;-45
2022/02/27 05:10:45;;;;;;;;;;;;;;;;;;2097737;28;19935;-46
2022/02/27 05:11:46;;;;;;;;;;;;;;;;;;2097048;28;19947;-45
2022/02/27 05:12:47;;;;;;;;;;;;;;;;;;2099036;28;19928;-48
2022/02/27 05:13:48;;;;;;;;;;;;;;;;;;2095542;28;19932;-49
2022/02/27 05:14:49;;;;;;;;;;;;;;;;;;2098847;28;19925;-48
2022/02/27 05:16:07;;;;;;;;;;;;;;;;;;2097988;28;19931;-48
2022/02/27 05:17:08;;;;;;;;;;;;;;;;;;2096570;28;19971;-50
2022/02/27 05:18:09;;;;;;;;;;;;;;;;;;2099009;28;19924;-49
2022/02/27 05:19:10;;;;;;;;;;;;;;;;;;2098208;28;20019;-49
2022/02/27 05:20:12;;;;;;;;;;;;;;;;;;2096243;28;20019;-48
2022/02/27 05:21:13;;;;;;;;;;;;;;;;;;2099042;28;20262;-50
2022/02/27 05:22:15;;;;;;;;;;;;;;;;;;2095529;28;19925;-48
2022/02/27 05:23:16;;;;;;;;;;;;;;;;;;2099134;28;19924;-49
2022/02/27 05:24:17;;;;;;;;;;;;;;;;;;2098862;28;20293;-50
2022/02/27 05:25:19;;;;;;;;;;;;;;;;;;2094411;28;19928;-50
2022/02/27 05:26:20;;;;;;;;;;;;;;;;;;2098489;28;20015;-48
2022/02/27 05:27:21;;;;;;;;;;;;;;;;;;2098138;28;20294;-50
2022/02/27 05:28:22;;;;;;;;;;;;;;;;;;2097337;28;19990;-48
2022/02/27 05:29:23;;;;;;;;;;;;;;;;;;2098923;28;19939;-49
2022/02/27 05:30:24;;;;;;;;;;;;;;;;;;2096989;28;19932;-50
2022/02/27 05:31:25;;;;;;;;;;;;;;;;;;2097430;28;19925;-48
2022/02/27 05:32:26;;;;;;;;;;;;;;;;;;2098928;28;19924;-48
2022/02/27 05:33:27;;;;;;;;;;;;;;;;;;2096810;28;20258;-48
2022/02/27 05:34:27;;;;;;;;;;;;;;;;;;2098788;28;19932;-48
2022/02/27 05:35:28;;;;;;;;;;;;;;;;;;2099048;28;19924;-45
2022/02/27 05:36:29;;;;;;;;;;;;;;;;;;2095426;28;19925;-44
2022/02/27 05:37:30;;;;;;;;;;;;;;;;;;2098877;28;19925;-44
2022/02/27 05:38:31;;;;;;;;;;;;;;;;;;2098190;28;19924;-44
2022/02/27 05:39:32;;;;;;;;;;;;;;;;;;2096251;28;20338;-44
2022/02/27 05:40:33;;;;;;;;;;;;;;;;;;2098340;28;19928;-50
2022/02/27 05:41:34;;;;;;;;;;;;;;;;;;2097442;28;20017;-48
2022/02/27 05:42:35;;;;;;;;;;;;;;;;;;2097282;28;20348;-48
2022/02/27 05:43:36;;;;;;;;;;;;;;;;;;2098709;28;20013;-49
2022/02/27 05:44:39;;;;;;;;;;;;;;;;;;2094298;28;20392;-49
2022/02/27 05:45:40;;;;;;;;;;;;;;;;;;2096623;28;19924;-49
2022/02/27 05:46:41;;;;;;;;;;;;;;;;;;2094676;28;20010;-49
2022/02/27 05:47:41;;;;;;;;;;;;;;;;;;2096535;28;19931;-49
2022/02/27 05:48:42;;;;;;;;;;;;;;;;;;2098728;28;19924;-45
2022/02/27 05:49:43;;;;;;;;;;;;;;;;;;2098822;28;20336;-49
2022/02/27 05:50:44;;;;;;;;;;;;;;;;;;2095165;28;19940;-48
2022/02/27 05:51:46;;;;;;;;;;;;;;;;;;2098696;28;20354;-52
2022/02/27 05:52:47;;;;;;;;;;;;;;;;;;2096783;28;19924;-49
2022/02/27 05:53:48;;;;;;;;;;;;;;;;;;2096182;28;19947;-51
2022/02/27 05:54:49;;;;;;;;;;;;;;;;;;2098666;28;19924;-49
2022/02/27 05:55:56;;;;;;;;;;;;;;;;;;2095918;28;19948;-51
2022/02/27 05:56:57;;;;;;;;;;;;;;;;;;2097965;28;20011;-45
2022/02/27 05:57:58;;;;;;;;;;;;;;;;;;2098838;28;19931;-45
2022/02/27 05:58:59;;;;;;;;;;;;;;;;;;2096458;28;19932;-45
2022/02/27 05:59:59;;;;;;;;;;;;;;;;;;2098665;28;19955;-45
2022/02/27 06:01:00;;;;;;;;;;;;;;;;;;2098613;28;20369;-45
2022/02/27 06:02:02;;;;;;;;;;;;;;;;;;2091560;28;20021;-45
2022/02/27 06:03:04;;;;;;;;;;;;;;;;;;2090039;28;19939;-45
2022/02/27 06:04:05;;;;;;;;;;;;;;;;;;2091929;28;19925;-46
2022/02/27 06:05:06;;;;;;;;;;;;;;;;;;2097257;28;19931;-50
2022/02/27 06:06:07;;;;;;;;;;;;;;;;;;2098766;28;20393;-45
2022/02/27 06:07:07;;;;;;;;;;;;;;;;;;2096477;28;19977;-45
2022/02/27 06:08:08;;;;;;;;;;;;;;;;;;2098758;28;19924;-46
2022/02/27 06:09:09;;;;;;;;;;;;;;;;;;2098741;28;20294;-46
2022/02/27 06:10:10;;;;;;;;;;;;;;;;;;2096522;28;19999;-45
2022/02/27 06:11:11;;;;;;;;;;;;;;;;;;2098480;28;19930;-47
2022/02/27 06:12:12;;;;;;;;;;;;;;;;;;2098713;28;19974;-50
2022/02/27 06:13:13;;;;;;;;;;;;;;;;;;2095642;28;19924;-45
2022/02/27 06:14:13;;;;;;;;;;;;;;;;;;2098650;28;20401;-46
2022/02/27 06:15:14;;;;;;;;;;;;;;;;;;2097743;28;19924;-46
2022/02/27 06:16:15;;;;;;;;;;;;;;;;;;2097099;28;19931;-45
2022/02/27 06:17:16;;;;;;;;;;;;;;;;;;2098418;28;20011;-45
2022/02/27 06:18:17;;;;;;;;;;;;;;;;;;2094421;28;19939;-45
2022/02/27 06:19:18;;;;;;;;;;;;;;;;;;2097070;28;19924;-47
2022/02/27 06:20:19;;;;;;;;;;;;;;;;;;2098493;28;19925;-45
2022/02/27 06:21:20;;;;;;;;;;;;;;;;;;2096352;28;19966;-45
2022/02/27 06:22:21;;;;;;;;;;;;;;;;;;2098535;28;20296;-45
2022/02/27 06:23:22;;;;;;;;;;;;;;;;;;2098587;28;20012;-46
2022/02/27 06:24:23;;;;;;;;;;;;;;;;;;2096412;28;19929;-49
2022/02/27 06:25:24;;;;;;;;;;;;;;;;;;2098777;28;19952;-52
2022/02/27 06:26:25;;;;;;;;;;;;;;;;;;2098055;28;20011;-50
2022/02/27 06:27:26;;;;;;;;;;;;;;;;;;2096738;28;20054;-48
2022/02/27 06:28:27;;;;;;;;;;;;;;;;;;2098447;28;19928;-49
2022/02/27 06:29:27;;;;;;;;;;;;;;;;;;2097775;28;19924;-48
2022/02/27 06:30:28;;;;;;;;;;;;;;;;;;2095916;28;19964;-50
2022/02/27 06:31:29;;;;;;;;;;;;;;;;;;2098280;28;19925;-51
2022/02/27 06:32:30;;;;;;;;;;;;;;;;;;2096103;28;19925;-50
2022/02/27 06:33:31;;;;;;;;;;;;;;;;;;2098351;28;19929;-49
2022/02/27 06:34:32;;;;;;;;;;;;;;;;;;2097584;28;19925;-51
2022/02/27 06:35:33;;;;;;;;;;;;;;;;;;2094172;28;19932;-50
2022/02/27 06:36:34;;;;;;;;;;;;;;;;;;2094209;28;19929;-49
2022/02/27 06:37:37;;;;;;;;;;;;;;;;;;2093247;28;20286;-50
2022/02/27 06:38:39;;;;;;;;;;;;;;;;;;2093675;28;19929;-50
2022/02/27 06:39:39;;;;;;;;;;;;;;;;;;2097856;28;19994;-52
2022/02/27 06:40:40;;;;;;;;;;;;;;;;;;2097466;28;20054;-50
2022/02/27 06:41:41;;;;;;;;;;;;;;;;;;2094143;28;20026;-51
2022/02/27 06:42:43;;;;;;;;;;;;;;;;;;2089690;28;19929;-52
2022/02/27 06:43:43;;;;;;;;;;;;;;;;;;2090940;28;20416;-51
2022/02/27 06:44:45;;;;;;;;;;;;;;;;;;2095574;28;19983;-50
2022/02/27 06:45:46;;;;;;;;;;;;;;;;;;2097809;28;20011;-50
2022/02/27 06:46:47;;;;;;;;;;;;;;;;;;2095650;28;20345;-51
2022/02/27 06:47:48;;;;;;;;;;;;;;;;;;2093186;28;19929;-51
2022/02/27 06:48:49;;;;;;;;;;;;;;;;;;2097769;28;19924;-49
2022/02/27 06:49:50;;;;;;;;;;;;;;;;;;2096064;28;19924;-52
2022/02/27 06:50:52;;;;;;;;;;;;;;;;;;2097905;28;20285;-51
2022/02/27 06:51:52;;;;;;;;;;;;;;;;;;2097728;28;19925;-51
2022/02/27 06:52:53;;;;;;;;;;;;;;;;;;2094377;28;19994;-50
2022/02/27 06:53:54;;;;;;;;;;;;;;;;;;2097642;28;20019;-50
2022/02/27 06:54:55;;;;;;;;;;;;;;;;;;2097179;28;19960;-49
2022/02/27 06:55:56;;;;;;;;;;;;;;;;;;2093404;28;19924;-48
2022/02/27 06:56:57;;;;;;;;;;;;;;;;;;2095768;28;20344;-51